Keego Harbor, Michigan
Current Conditions -  °F | °C
As of 11:53 PM on Tuesday 21 Oct 2014 (Local Time) from KPTK Reporting Station
Overcast Overcast  
Wind Chill: 38°   Ceiling: 1800
Heat Index: 43°   Visibility: 10mi
Dew Point: 35°   Wind: 9mph
Humidity: 74%   Direction: 10°N
Pressure: 30.21"   Gusts: NA
Location:  42.61°N, 83.34°W
Report Text: KPTK 220353Z 01008KT 10SM OVC018 06/02 A3021 RMK AO2 SLP235 LAST AUGMENTED OBS NEXT 10Z T00610017
Loading
Personal Weather Stations






























Interactive Weather Map
Tropical Storm Tracking
New forecast layout! Learn more

10-Day Weather Forecast

Advertisements
Track Severe Weather on mobile